Beeville, Texas
Current Conditions -  °F | °C
As of 11:55 AM on Monday 24 Nov 2014 (Local Time) from KBEA Reporting Station
Clear Clear  
Wind Chill: 63°   Ceiling: Unl
Heat Index: 63°   Visibility: 10mi
Dew Point: 33°   Wind: 14mph
Humidity: 33%   Direction: 350°N
Pressure: 30.09"   Gusts: 18mph
Location:  28.4°N, 97.75°W
Report Text: KBEA 241755Z AUTO 35012G16KT 10SM CLR 17/01 A3009 RMK AO2 T01730008 10173 20105
Loading
Personal Weather Stations






























Interactive Weather Map New forecast layout! Learn more

10-Day Weather Forecast

Advertisements
Track Severe Weather on mobile